Time;durP1;ratioP1;P1;durP2;ratioP2;P2;SDS_P1;SDS_P2;PMS_P1;PMS_P2;Temp;Humidity;BMP_temperature;BMP_pressure;BME280_temperature;BME280_humidity;BME280_pressure;Samples;Min_cycle;Max_cycle;Signal;HPM_P1;HPM_P2
2023/01/16 00:01:37;;;;;;;2.93;2.50;;;;;;;5.02;47.98;98611.22;10348485;28;20260;-63
2023/01/16 00:06:40;;;;;;;3.67;3.10;;;;;;;5.77;46.55;98621.03;10347409;28;20241;-62
2023/01/16 00:11:42;;;;;;;5.13;2.90;;;;;;;5.80;46.44;98612.72;10352915;28;20253;-62
2023/01/16 00:16:44;;;;;;;2.93;2.70;;;;;;;4.83;47.20;98583.34;10366884;28;20738;-61
2023/01/16 00:21:47;;;;;;;4.40;2.90;;;;;;;5.25;47.02;98612.03;10362380;28;20237;-63
2023/01/16 00:26:50;;;;;;;5.67;2.50;;;;;;;6.52;45.40;98560.72;10357225;28;20237;-62
2023/01/16 00:31:52;;;;;;;2.60;2.40;;;;;;;6.05;45.48;98597.34;10360258;28;20243;-58
2023/01/16 00:36:54;;;;;;;4.03;2.30;;;;;;;5.37;46.22;98571.81;10361352;28;20241;-60
2023/01/16 00:41:55;;;;;;;3.13;2.37;;;;;;;5.07;47.08;98518.72;10352949;28;20767;-58
2023/01/16 00:46:57;;;;;;;5.67;3.07;;;;;;;4.88;46.80;98514.72;10361954;28;20244;-60
2023/01/16 00:51:59;;;;;;;6.67;2.77;;;;;;;6.47;45.39;98499.34;10359134;28;20255;-59
2023/01/16 00:57:00;;;;;;;7.10;3.70;;;;;;;5.35;47.06;98521.56;10361342;28;20234;-57
2023/01/16 01:02:02;;;;;;;3.63;2.77;;;;;;;4.41;47.35;98458.28;10357066;28;20239;-58
2023/01/16 01:07:04;;;;;;;3.57;3.07;;;;;;;5.38;46.79;98488.56;10353763;28;20228;-59
2023/01/16 01:12:05;;;;;;;2.80;2.50;;;;;;;6.22;45.49;98489.03;10361503;28;20233;-60
2023/01/16 01:17:07;;;;;;;3.63;2.97;;;;;;;5.38;46.75;98483.25;10366733;28;20233;-58
2023/01/16 01:22:09;;;;;;;3.23;2.57;;;;;;;4.88;47.36;98457.22;10358281;28;20242;-59
2023/01/16 01:27:11;;;;;;;4.00;2.30;;;;;;;6.35;46.11;98415.81;10355672;28;20239;-60
2023/01/16 01:32:12;;;;;;;3.27;2.97;;;;;;;4.77;47.75;98392.22;10358196;28;20237;-60
2023/01/16 01:37:14;;;;;;;4.93;2.93;;;;;;;5.95;46.67;98410.91;10354817;28;20248;-60
2023/01/16 01:47:40;;;;;;;2.93;2.30;;;;;;;5.34;46.86;98413.84;10372534;28;20236;-59
2023/01/16 01:52:42;;;;;;;4.37;2.80;;;;;;;6.52;45.43;98368.53;10357256;28;20237;-60
2023/01/16 01:57:49;;;;;;;3.10;2.47;;;;;;;3.57;49.23;98263.13;10375004;28;20236;-60
2023/01/16 02:03:03;;;;;;;4.60;3.23;;;;;;;4.35;48.63;98300.88;10359584;28;20241;-60
2023/01/16 02:08:06;;;;;;;6.60;3.00;;;;;;;4.84;47.86;98319.94;10362517;28;20732;-59
2023/01/16 02:13:08;;;;;;;4.20;2.37;;;;;;;4.47;48.11;98306.56;10363853;28;20236;-60
2023/01/16 02:23:42;;;;;;;4.13;2.83;;;;;;;5.06;47.99;98295.13;10342963;28;20229;-59
2023/01/16 02:29:20;;;;;;;2.90;2.43;;;;;;;4.27;49.31;98228.59;10349063;28;20244;-59
2023/01/16 02:34:37;;;;;;;3.20;2.90;;;;;;;4.61;48.75;98249.31;10346349;28;20229;-57
2023/01/16 02:40:03;;;;;;;2.50;2.30;;;;;;;4.60;48.64;98218.50;10350941;28;20236;-59
2023/01/16 02:45:27;;;;;;;3.30;3.00;;;;;;;5.44;47.34;98231.31;10344929;28;20924;-58
2023/01/16 02:50:51;;;;;;;4.00;2.50;;;;;;;6.32;47.25;98188.53;10347961;28;20237;-59
2023/01/16 02:55:57;;;;;;;2.67;2.47;;;;;;;4.25;49.21;98159.94;10347524;28;20241;-58
2023/01/16 03:01:00;;;;;;;4.47;3.07;;;;;;;5.14;48.32;98172.25;10344031;28;21419;-59
2023/01/16 03:06:22;;;;;;;5.17;2.43;;;;;;;4.57;49.00;98150.00;10350946;28;20233;-59
2023/01/16 03:11:34;;;;;;;6.37;3.37;;;;;;;4.86;48.55;98125.28;10357071;28;20613;-59
2023/01/16 03:16:56;;;;;;;3.67;3.00;;;;;;;4.54;48.53;98118.56;10352186;28;20267;-59
2023/01/16 03:22:30;;;;;;;7.23;3.07;;;;;;;3.91;49.21;98081.91;10348001;28;20283;-59
2023/01/16 03:28:11;;;;;;;3.93;3.13;;;;;;;4.92;48.56;98075.97;10337597;28;20801;-59
2023/01/16 03:33:31;;;;;;;5.60;2.60;;;;;;;4.12;48.81;98069.75;10340578;28;20233;-60
2023/01/16 03:38:36;;;;;;;3.00;2.80;;;;;;;4.63;48.83;98048.56;10347068;28;20607;-59
2023/01/16 03:43:38;;;;;;;3.00;2.30;;;;;;;5.13;47.94;98051.25;10346602;28;20314;-59
2023/01/16 03:49:07;;;;;;;2.87;2.63;;;;;;;5.74;47.06;98032.16;10350923;28;20248;-59
2023/01/16 03:54:42;;;;;;;2.87;2.67;;;;;;;4.17;49.03;98007.31;10376966;28;20240;-59
2023/01/16 03:59:46;;;;;;;3.20;2.27;;;;;;;4.27;48.38;97999.06;10355257;28;20239;-58
2023/01/16 04:05:02;;;;;;;3.37;2.20;;;;;;;5.12;47.53;98000.06;10356290;28;20260;-60
2023/01/16 04:10:10;;;;;;;6.07;2.97;;;;;;;5.07;47.86;97988.41;10359928;28;20812;-59
2023/01/16 04:15:11;;;;;;;5.00;3.47;;;;;;;4.20;49.20;97931.97;10354643;28;20609;-57
2023/01/16 04:20:13;;;;;;;2.00;1.90;;;;;;;3.96;49.73;97898.75;10354711;28;20634;-59
2023/01/16 04:25:18;;;;;;;2.90;2.60;;;;;;;4.91;47.92;97931.19;10355915;28;20233;-58
2023/01/16 04:30:20;;;;;;;2.77;2.53;;;;;;;5.89;46.44;97904.56;10354161;28;20248;-57
2023/01/16 04:35:21;;;;;;;3.27;2.90;;;;;;;5.43;47.46;97915.81;10354083;28;20500;-62
2023/01/16 04:40:24;;;;;;;6.07;3.50;;;;;;;5.05;47.44;97893.16;10351574;28;20241;-59
2023/01/16 04:45:25;;;;;;;6.50;3.10;;;;;;;5.40;46.83;97882.56;10349705;28;20241;-61
2023/01/16 04:50:27;;;;;;;6.53;3.70;;;;;;;5.95;46.33;97861.31;10352924;28;20795;-59
2023/01/16 04:55:53;;;;;;;4.50;3.57;;;;;;;5.33;46.75;97860.47;10346469;28;20540;-60
2023/01/16 05:01:19;;;;;;;6.73;4.20;;;;;;;5.81;46.37;97849.84;10352134;28;20224;-60
2023/01/16 05:06:45;;;;;;;5.80;3.10;;;;;;;6.40;44.82;97835.00;10346082;28;20232;-60
2023/01/16 05:12:11;;;;;;;7.93;4.37;;;;;;;6.51;44.88;97828.25;10346624;28;20225;-60
2023/01/16 05:17:37;;;;;;;4.97;3.30;;;;;;;7.69;43.06;97799.84;10347473;28;20645;-60
2023/01/16 05:23:02;;;;;;;3.13;2.53;;;;;;;7.49;43.18;97784.84;10349964;28;20225;-59
2023/01/16 05:28:27;;;;;;;3.40;2.67;;;;;;;7.22;43.14;97789.44;10346381;28;20344;-61
2023/01/16 05:33:53;;;;;;;3.90;2.80;;;;;;;7.53;42.92;97739.97;10349221;28;20694;-60
2023/01/16 05:39:18;;;;;;;3.60;3.23;;;;;;;6.78;43.61;97761.78;10356136;28;20312;-59
2023/01/16 05:44:44;;;;;;;3.07;2.23;;;;;;;7.16;43.45;97766.38;10347845;28;20240;-60
2023/01/16 05:50:09;;;;;;;4.10;3.00;;;;;;;6.66;43.81;97766.09;10347715;28;20226;-59
2023/01/16 05:55:42;;;;;;;4.47;2.70;;;;;;;7.27;43.00;97725.78;10355176;28;20790;-59
2023/01/16 06:01:08;;;;;;;3.73;2.93;;;;;;;7.99;42.37;97698.91;10342647;28;20222;-60
2023/01/16 06:06:34;;;;;;;2.67;2.47;;;;;;;9.22;40.76;97662.44;10344901;28;20717;-60
2023/01/16 06:12:00;;;;;;;3.53;2.63;;;;;;;8.83;40.31;97642.44;10346782;28;20286;-59
2023/01/16 06:17:25;;;;;;;2.90;2.20;;;;;;;8.24;41.16;97653.56;10347615;28;20233;-60
2023/01/16 06:22:50;;;;;;;5.80;3.10;;;;;;;9.02;40.38;97641.38;10344603;28;20224;-59
2023/01/16 06:28:16;;;;;;;3.07;2.50;;;;;;;6.97;42.21;97593.38;10344872;28;20264;-60
2023/01/16 06:33:42;;;;;;;2.73;2.53;;;;;;;7.84;42.00;97600.69;10337831;28;20478;-59
2023/01/16 06:39:12;;;;;;;5.27;2.90;;;;;;;6.24;44.01;97533.44;10344155;28;20711;-60
2023/01/16 06:44:38;;;;;;;2.40;2.20;;;;;;;7.31;43.27;97563.91;10344121;28;20285;-59
2023/01/16 06:50:04;;;;;;;4.17;2.90;;;;;;;6.69;43.11;97555.69;10354461;28;20229;-59
2023/01/16 06:55:30;;;;;;;2.73;2.50;;;;;;;7.30;42.74;97541.78;10353332;28;20225;-60
2023/01/16 07:00:56;;;;;;;5.00;2.60;;;;;;;6.39;43.49;97506.59;10343391;28;20240;-60
2023/01/16 07:06:22;;;;;;;3.10;2.80;;;;;;;7.06;42.44;97537.28;10347507;28;20253;-60
2023/01/16 07:11:47;;;;;;;3.17;2.87;;;;;;;9.36;40.17;97465.53;10344173;28;20430;-59
2023/01/16 07:22:59;;;;;;;4.73;2.87;;;;;;;6.78;42.78;97440.13;10358176;28;20224;-59
2023/01/16 07:28:25;;;;;;;4.40;2.60;;;;;;;7.59;42.51;97472.94;10356444;28;20237;-60
2023/01/16 07:33:51;;;;;;;5.07;3.20;;;;;;;7.07;43.14;97437.84;10355109;28;20337;-59
2023/01/16 07:39:16;;;;;;;5.73;3.30;;;;;;;7.21;42.81;97436.69;10354599;28;20240;-60
2023/01/16 07:44:42;;;;;;;7.57;5.40;;;;;;;7.94;41.81;97424.44;10355811;28;20714;-60
2023/01/16 07:50:08;;;;;;;7.47;4.30;;;;;;;6.98;42.90;97416.84;10356500;28;20233;-60
2023/01/16 07:55:33;;;;;;;6.47;4.60;;;;;;;7.01;42.54;97396.19;10349687;28;20232;-60
2023/01/16 08:00:59;;;;;;;4.20;3.33;;;;;;;7.53;42.08;97394.78;10352596;28;20659;-59
2023/01/16 08:06:25;;;;;;;7.63;5.23;;;;;;;7.43;42.31;97372.41;10345161;28;20430;-60
2023/01/16 08:11:52;;;;;;;8.67;5.13;;;;;;;7.57;41.69;97376.53;10345615;28;20232;-60
2023/01/16 08:17:17;;;;;;;6.30;4.90;;;;;;;7.88;41.07;97356.09;10361994;28;20225;-60
2023/01/16 08:22:45;;;;;;;4.57;4.17;;;;;;;7.12;41.38;97339.59;10353784;28;20678;-59
2023/01/16 08:28:10;;;;;;;6.10;3.90;;;;;;;7.25;41.14;97335.97;10349408;28;20488;-58
2023/01/16 08:34:27;;;;;;;3.57;3.13;;;;;;;5.97;43.07;97210.69;10349664;28;20236;-60
2023/01/16 08:40:42;;;;;;;2.70;2.30;;;;;;;6.53;42.53;97241.63;10348387;28;20225;-59
2023/01/16 08:53:32;;;;;;;3.77;2.60;;;;;;;6.57;41.66;97232.19;10346611;28;20237;-60
2023/01/16 08:59:47;;;;;;;3.27;2.63;;;;;;;5.60;42.39;97150.34;10349910;28;20470;-59
2023/01/16 09:06:04;;;;;;;2.47;2.30;;;;;;;5.91;42.02;97183.19;10348030;28;20304;-60
2023/01/16 09:18:56;;;;;;;2.17;1.97;;;;;;;6.33;42.92;97156.00;10347055;28;20229;-60
2023/01/16 09:25:12;;;;;;;1.80;1.80;;;;;;;6.72;42.60;97154.75;10351259;28;20591;-59
2023/01/16 09:31:28;;;;;;;2.03;1.93;;;;;;;7.40;42.40;97163.47;10339438;28;20878;-59
2023/01/16 09:37:43;;;;;;;2.13;2.03;;;;;;;5.93;43.68;97148.47;10346592;28;20911;-60
2023/01/16 09:43:59;;;;;;;1.63;1.63;;;;;;;6.65;43.38;97131.94;10347675;28;21620;-60
2023/01/16 09:50:15;;;;;;;2.40;2.30;;;;;;;6.11;43.09;97158.28;10343886;28;20944;-58
2023/01/16 10:03:05;;;;;;;2.50;2.30;;;;;;;5.79;45.13;97078.75;10345306;28;20706;-60
2023/01/16 10:09:20;;;;;;;2.00;1.90;;;;;;;7.82;43.43;97086.22;10348282;28;20237;-60
2023/01/16 10:15:36;;;;;;;2.67;2.47;;;;;;;6.84;44.82;97080.41;10345929;28;20241;-58
2023/01/16 10:21:53;;;;;;;2.13;2.03;;;;;;;5.87;46.54;97031.53;10342748;28;20229;-60
2023/01/16 10:28:09;;;;;;;2.20;2.10;;;;;;;6.38;45.56;97057.88;10344404;28;20723;-60
2023/01/16 10:34:26;;;;;;;2.10;2.00;;;;;;;6.06;46.41;97003.13;10343805;28;20232;-59
2023/01/16 10:40:41;;;;;;;1.83;1.80;;;;;;;6.53;46.14;97021.13;10347155;28;20223;-57
2023/01/16 10:53:31;;;;;;;1.70;1.70;;;;;;;5.75;47.88;96934.28;10348751;28;20627;-60
2023/01/16 10:59:47;;;;;;;2.00;1.90;;;;;;;5.11;48.96;96884.16;10356126;28;20234;-60
2023/01/16 19:12:23;;;;;;;4.40;2.70;;;;;;;4.55;57.17;96737.59;10553255;27;20242;-65
2023/01/16 19:17:25;;;;;;;3.40;3.10;;;;;;;4.15;57.18;96756.44;10552654;28;20233;-65
2023/01/16 19:22:26;;;;;;;5.03;2.97;;;;;;;4.40;56.27;96728.13;10546190;28;20233;-64
2023/01/16 19:27:30;;;;;;;3.53;3.23;;;;;;;4.30;56.56;96753.47;10541309;28;20742;-64
2023/01/16 19:32:32;;;;;;;3.60;3.30;;;;;;;4.54;56.08;96750.03;10535779;28;20241;-62
2023/01/16 19:37:34;;;;;;;2.80;2.60;;;;;;;3.95;57.29;96815.66;10541983;28;20973;-62
2023/01/16 19:47:56;;;;;;;2.80;2.60;;;;;;;5.10;55.79;96763.25;10542661;28;20244;-60
2023/01/16 19:52:58;;;;;;;4.90;3.10;;;;;;;5.67;53.31;96762.94;10547104;28;20310;-61
2023/01/16 19:57:59;;;;;;;3.40;3.03;;;;;;;5.36;54.71;96809.84;10544063;28;20230;-61
2023/01/16 20:03:01;;;;;;;3.93;2.83;;;;;;;4.75;55.36;96822.13;10548090;28;20238;-62
2023/01/16 20:08:03;;;;;;;3.33;3.03;;;;;;;5.27;53.84;96789.97;10547329;28;20265;-62
2023/01/16 20:13:05;;;;;;;3.80;2.77;;;;;;;5.16;53.64;96809.28;10548227;28;20238;-64
2023/01/16 20:18:06;;;;;;;4.60;3.10;;;;;;;4.77;53.83;96828.81;10543309;28;20324;-65
2023/01/16 20:23:08;;;;;;;3.03;2.83;;;;;;;4.98;53.44;96837.41;10547386;27;20275;-69
2023/01/16 20:28:10;;;;;;;3.57;2.73;;;;;;;4.50;53.56;96864.53;10552591;28;20234;-62
2023/01/16 20:33:14;;;;;;;4.37;3.40;;;;;;;5.15;53.03;96872.09;10566084;27;20237;-65
2023/01/16 20:38:15;;;;;;;3.93;3.30;;;;;;;4.74;53.03;96876.13;10588726;27;20240;-66
2023/01/16 20:48:37;;;;;;;5.57;3.20;;;;;;;4.86;52.29;96892.97;10586828;27;20259;-69
2023/01/16 20:53:40;;;;;;;3.63;3.30;;;;;;;4.16;53.59;96916.88;10586567;27;20298;-70
2023/01/16 20:58:41;;;;;;;5.70;3.47;;;;;;;4.61;52.59;96898.28;10585992;27;20264;-61
2023/01/16 21:03:43;;;;;;;3.40;3.10;;;;;;;4.11;53.51;96922.81;10589140;27;20256;-63
2023/01/16 21:08:45;;;;;;;3.40;2.70;;;;;;;4.34;53.52;96919.66;10586446;27;20736;-61
2023/01/16 21:24:45;;;;;;;3.20;2.60;;;;;;;3.77;53.06;96914.22;10463067;28;20720;-34
2023/01/16 21:29:54;;;;;;;3.73;2.80;;;;;;;3.76;53.79;96946.97;10463862;28;20881;-34
2023/01/16 21:34:56;;;;;;;2.93;2.60;;;;;;;3.72;54.05;96955.56;10465837;28;20606;-36
2023/01/16 21:39:58;;;;;;;3.40;3.10;;;;;;;3.68;53.88;96928.69;10457780;28;20260;-36
2023/01/16 21:50:20;;;;;;;3.30;2.63;;;;;;;4.18;53.44;96922.78;10470159;28;20226;-37
2023/01/16 21:55:22;;;;;;;3.33;3.10;;;;;;;4.25;52.96;96935.97;10466553;28;20227;-36
2023/01/16 22:00:24;;;;;;;2.93;2.63;;;;;;;5.72;51.57;96945.34;10468243;28;20232;-34
2023/01/16 22:05:27;;;;;;;3.50;3.20;;;;;;;5.61;51.86;96949.56;10461975;28;20231;-37
2023/01/16 22:10:29;;;;;;;3.47;3.17;;;;;;;5.31;52.03;96974.09;10470120;28;20231;-37
2023/01/16 22:21:06;;;;;;;3.20;3.00;;;;;;;5.33;50.98;96986.13;10463444;28;20556;-42
2023/01/16 22:26:08;;;;;;;3.70;2.70;;;;;;;5.01;51.20;96993.31;10467122;28;20231;-37
2023/01/16 22:31:12;;;;;;;3.40;3.10;;;;;;;4.28;52.99;97036.94;10457584;28;20224;-37
2023/01/16 22:36:13;;;;;;;2.80;2.60;;;;;;;3.25;53.96;97053.47;10465039;28;20238;-36
2023/01/16 22:41:18;;;;;;;3.30;3.07;;;;;;;4.74;52.38;97020.03;10463688;28;20234;-37
2023/01/16 22:46:22;;;;;;;5.47;3.00;;;;;;;3.48;52.26;97029.25;10467572;28;20618;-37
2023/01/16 22:51:26;;;;;;;2.90;2.70;;;;;;;3.19;52.92;97052.47;10463743;28;20243;-37
2023/01/16 22:56:28;;;;;;;3.47;3.10;;;;;;;4.91;51.78;97049.47;10472921;28;20980;-37
2023/01/16 23:01:30;;;;;;;2.77;2.53;;;;;;;3.72;52.90;97064.81;10457879;28;20231;-34
2023/01/16 23:06:31;;;;;;;4.00;3.60;;;;;;;4.30;51.89;97034.88;10465365;28;20242;-37
2023/01/16 23:11:36;;;;;;;2.80;2.60;;;;;;;4.44;51.69;97062.16;10461972;28;20247;-34
2023/01/16 23:16:39;;;;;;;3.30;3.00;;;;;;;3.94;51.57;97054.78;10460678;28;20250;-34
2023/01/16 23:21:41;;;;;;;3.90;3.60;;;;;;;4.65;51.10;97055.72;10464470;28;20235;-36
2023/01/16 23:26:43;;;;;;;4.53;3.00;;;;;;;5.34;50.21;97058.53;10469388;28;20286;-35
2023/01/16 23:31:47;;;;;;;4.13;3.73;;;;;;;4.09;51.75;97111.97;10467273;28;20234;-37
2023/01/16 23:36:50;;;;;;;3.50;3.20;;;;;;;4.92;50.67;97074.94;10468544;28;20242;-35
2023/01/16 23:47:18;;;;;;;3.40;3.00;;;;;;;5.64;48.96;97084.41;10469409;28;20241;-35
2023/01/16 23:52:21;;;;;;;6.03;3.90;;;;;;;5.93;48.33;97092.72;10472755;28;20234;-37
2023/01/16 23:57:28;;;;;;;3.53;2.97;;;;;;;6.35;47.62;97124.75;10474030;28;20691;-34
